Time;durP1;ratioP1;P1;durP2;ratioP2;P2;SDS_P1;SDS_P2;PMS_P1;PMS_P2;Temp;Humidity;BMP_temperature;BMP_pressure;BME280_temperature;BME280_humidity;BME280_pressure;Samples;Min_cycle;Max_cycle;Signal;HPM_P1;HPM_P2
2023/09/28 00:02:45;;;;;;;1999.90;999.90;;;11.70;99.90;;;;;;5077089;28;20029;-77
2023/09/28 00:05:12;;;;;;;1999.90;999.90;;;11.70;99.90;;;;;;5076201;28;20033;-77
2023/09/28 00:07:39;;;;;;;1999.90;999.90;;;11.60;99.90;;;;;;5075240;28;20028;-76
2023/09/28 00:10:11;;;;;;;1999.90;999.90;;;11.60;99.90;;;;;;5076912;28;20037;-77
2023/09/28 00:12:39;;;;;;;1999.90;999.90;;;11.50;99.90;;;;;;5077143;28;20029;-77
2023/09/28 00:15:05;;;;;;;1999.90;999.90;;;11.50;99.90;;;;;;5076740;28;20044;-77
2023/09/28 00:17:32;;;;;;;1999.90;999.90;;;11.50;99.90;;;;;;5076464;28;20033;-77
2023/09/28 00:19:58;;;;;;;1999.90;999.90;;;11.40;99.90;;;;;;5075303;28;20090;-77
2023/09/28 00:22:24;;;;;;;1999.90;999.90;;;11.40;99.90;;;;;;5076542;28;20497;-77
2023/09/28 00:24:49;;;;;;;1999.90;999.90;;;11.40;99.90;;;;;;5075251;28;20029;-77
2023/09/28 00:27:15;;;;;;;1999.90;999.90;;;11.30;99.90;;;;;;5076558;28;20060;-77
2023/09/28 00:29:41;;;;;;;1999.90;999.90;;;11.40;99.90;;;;;;5076690;28;20116;-77
2023/09/28 00:32:07;;;;;;;1999.90;999.90;;;11.40;99.90;;;;;;5076545;28;20039;-77
2023/09/28 00:34:33;;;;;;;1999.90;999.90;;;11.40;99.90;;;;;;5076027;28;20048;-77
2023/09/28 00:36:59;;;;;;;1999.90;999.90;;;11.40;99.90;;;;;;5076224;28;20040;-77
2023/09/28 00:39:24;;;;;;;1999.90;999.90;;;11.30;99.90;;;;;;5076556;28;20541;-77
2023/09/28 00:41:50;;;;;;;1999.90;999.90;;;11.30;99.90;;;;;;5076443;28;20540;-77
2023/09/28 00:44:15;;;;;;;1999.90;999.90;;;11.30;99.90;;;;;;5076281;28;20402;-77
2023/09/28 00:46:42;;;;;;;1999.90;999.90;;;11.30;99.90;;;;;;5076116;28;20479;-77
2023/09/28 00:49:11;;;;;;;1999.90;999.90;;;11.30;99.90;;;;;;5074781;28;20091;-77
2023/09/28 00:51:39;;;;;;;1999.90;999.90;;;11.40;99.90;;;;;;5076304;28;20021;-77
2023/09/28 00:54:06;;;;;;;1999.90;999.90;;;11.40;99.90;;;;;;5076057;28;20035;-77
2023/09/28 00:56:32;;;;;;;1999.90;999.90;;;11.60;99.90;;;;;;5076018;28;20083;-77
2023/09/28 00:58:59;;;;;;;1999.90;999.90;;;11.60;99.90;;;;;;5076120;28;20041;-77
2023/09/28 01:01:29;;;;;;;1999.90;999.90;;;11.70;99.90;;;;;;5076065;28;20025;-77
2023/09/28 01:03:56;;;;;;;1999.90;999.90;;;11.80;99.90;;;;;;5075873;28;20032;-77
2023/09/28 01:06:24;;;;;;;1999.90;999.90;;;11.90;99.90;;;;;;5075873;28;20036;-77
2023/09/28 01:08:50;;;;;;;1999.90;999.90;;;12.00;99.90;;;;;;5075817;28;20399;-77
2023/09/28 01:11:17;;;;;;;1999.90;999.90;;;12.00;99.90;;;;;;5075919;28;20057;-76
2023/09/28 01:13:44;;;;;;;1999.90;999.90;;;12.10;99.90;;;;;;5074969;28;20041;-77
2023/09/28 01:16:10;;;;;;;1999.90;999.90;;;12.10;99.90;;;;;;5073902;28;20116;-77
2023/09/28 01:18:36;;;;;;;1999.90;999.90;;;12.00;99.90;;;;;;5076596;28;20156;-77
2023/09/28 01:21:02;;;;;;;1999.90;999.90;;;12.10;99.90;;;;;;5074596;28;20040;-77
2023/09/28 01:23:28;;;;;;;1999.90;999.90;;;12.00;99.90;;;;;;5074165;28;20454;-77
2023/09/28 01:25:54;;;;;;;1999.90;999.90;;;12.00;99.90;;;;;;5074023;28;20032;-77
2023/09/28 01:28:21;;;;;;;1999.90;999.90;;;12.00;99.90;;;;;;5075430;28;20390;-77
2023/09/28 01:30:47;;;;;;;1999.90;999.90;;;12.00;99.90;;;;;;5075691;28;20059;-77
2023/09/28 01:33:13;;;;;;;1999.90;999.90;;;12.00;99.90;;;;;;5075049;28;20128;-77
2023/09/28 01:35:38;;;;;;;1999.90;999.90;;;12.00;99.90;;;;;;5073999;28;20039;-77
2023/09/28 01:38:22;;;;;;;1999.90;999.90;;;11.90;99.90;;;;;;5075425;28;20029;-77
2023/09/28 01:40:49;;;;;;;1999.90;999.90;;;11.90;99.90;;;;;;5074152;28;20033;-77
2023/09/28 01:43:16;;;;;;;1999.90;999.90;;;11.80;99.90;;;;;;5073951;28;20171;-77
2023/09/28 01:45:42;;;;;;;1999.90;999.90;;;11.80;99.90;;;;;;5073839;28;20474;-78
2023/09/28 01:48:08;;;;;;;1999.90;999.90;;;11.80;99.90;;;;;;5073775;28;20045;-76
2023/09/28 01:50:34;;;;;;;1999.90;999.90;;;11.70;99.90;;;;;;5075416;28;20382;-77
2023/09/28 01:53:00;;;;;;;1999.90;999.90;;;11.70;99.90;;;;;;5075166;28;20028;-77
2023/09/28 01:55:26;;;;;;;1999.90;999.90;;;11.70;99.90;;;;;;5073762;28;20025;-77
2023/09/28 01:57:51;;;;;;;1999.90;999.90;;;11.70;99.90;;;;;;5073426;28;20037;-77
2023/09/28 02:00:21;;;;;;;1999.90;999.90;;;11.70;99.90;;;;;;5075180;28;20462;-77
2023/09/28 02:02:47;;;;;;;1999.90;999.90;;;11.70;99.90;;;;;;5074717;28;20053;-77
2023/09/28 02:05:23;;;;;;;1999.90;999.90;;;11.70;99.90;;;;;;5075177;28;20025;-77
2023/09/28 02:07:49;;;;;;;1999.90;999.90;;;11.70;99.90;;;;;;5074844;28;20064;-77
2023/09/28 02:10:15;;;;;;;1999.90;999.90;;;11.80;99.90;;;;;;5074914;28;20056;-77
2023/09/28 02:12:44;;;;;;;1999.90;999.90;;;11.90;99.90;;;;;;5075025;28;20104;-77
2023/09/28 02:15:10;;;;;;;1999.90;999.90;;;11.90;99.90;;;;;;5075101;28;20560;-77
2023/09/28 02:17:37;;;;;;;1999.90;999.90;;;11.90;99.90;;;;;;5074552;28;20037;-77
2023/09/28 02:20:08;;;;;;;1999.90;999.90;;;11.90;99.90;;;;;;5074884;28;20063;-77
2023/09/28 02:22:34;;;;;;;1999.90;999.90;;;11.90;99.90;;;;;;5075185;28;20171;-77
2023/09/28 02:25:00;;;;;;;1999.90;999.90;;;11.90;99.90;;;;;;5074820;28;20505;-77
2023/09/28 02:27:25;;;;;;;1999.90;999.90;;;11.90;99.90;;;;;;5074028;28;20039;-77
2023/09/28 02:29:52;;;;;;;1999.90;999.90;;;11.90;99.90;;;;;;5073329;28;20032;-77
2023/09/28 02:32:17;;;;;;;1999.90;999.90;;;11.80;99.90;;;;;;5073324;28;20071;-77
2023/09/28 02:34:43;;;;;;;1999.90;999.90;;;11.80;99.90;;;;;;5074370;28;20083;-77
2023/09/28 02:37:08;;;;;;;1999.90;999.90;;;11.70;99.90;;;;;;5072867;28;20056;-77
2023/09/28 02:39:35;;;;;;;1999.90;999.90;;;11.80;99.90;;;;;;5073241;28;20033;-77
2023/09/28 02:42:07;;;;;;;1999.90;999.90;;;11.70;99.90;;;;;;5074491;28;20029;-77
2023/09/28 02:44:36;;;;;;;1999.90;999.90;;;11.70;99.90;;;;;;5074483;28;20108;-77
2023/09/28 02:47:05;;;;;;;1999.90;999.90;;;11.70;99.90;;;;;;5074194;28;20037;-77
2023/09/28 02:49:34;;;;;;;1999.90;999.90;;;11.70;99.90;;;;;;5074210;28;20538;-77
2023/09/28 02:52:03;;;;;;;1999.90;999.90;;;11.70;99.90;;;;;;5074361;28;20043;-77
2023/09/28 02:54:30;;;;;;;1999.90;999.90;;;11.70;99.90;;;;;;5074410;28;20367;-77
2023/09/28 02:56:56;;;;;;;1999.90;999.90;;;11.70;99.90;;;;;;5074107;28;20568;-77
2023/09/28 02:59:24;;;;;;;1999.90;999.90;;;11.70;99.90;;;;;;5074439;28;20086;-77
2023/09/28 03:01:51;;;;;;;1999.90;999.90;;;11.70;99.90;;;;;;5072932;28;20032;-77
2023/09/28 03:04:17;;;;;;;1999.90;999.90;;;11.70;99.90;;;;;;5072642;28;20542;-77
2023/09/28 03:06:44;;;;;;;1999.90;999.90;;;11.60;99.90;;;;;;5074039;28;20044;-77
2023/09/28 03:09:12;;;;;;;1999.90;999.90;;;11.60;99.90;;;;;;5074306;28;20037;-77
2023/09/28 03:11:39;;;;;;;1999.90;999.90;;;11.60;99.90;;;;;;5072857;28;20036;-77
2023/09/28 03:14:05;;;;;;;1999.90;999.90;;;11.50;99.90;;;;;;5072718;28;20033;-77
2023/09/28 03:16:32;;;;;;;1999.90;999.90;;;11.50;99.90;;;;;;5072612;28;20494;-78
2023/09/28 03:18:58;;;;;;;1999.90;999.90;;;11.50;99.90;;;;;;5072695;28;20041;-77
2023/09/28 03:21:23;;;;;;;1999.90;999.90;;;11.50;99.90;;;;;;5073975;28;20402;-77
2023/09/28 03:23:49;;;;;;;1999.90;999.90;;;11.50;99.90;;;;;;5074052;28;20068;-77
2023/09/28 03:26:15;;;;;;;1999.90;999.90;;;11.50;99.90;;;;;;5073947;28;20478;-77
2023/09/28 03:28:41;;;;;;;1999.90;999.90;;;11.50;99.90;;;;;;5073996;28;20482;-77
2023/09/28 03:31:07;;;;;;;1999.90;999.90;;;11.50;99.90;;;;;;5073951;28;20033;-77
2023/09/28 03:33:32;;;;;;;1999.90;999.90;;;11.50;99.90;;;;;;5073095;28;20048;-77
2023/09/28 03:35:58;;;;;;;1999.90;999.90;;;11.50;99.90;;;;;;5073819;28;20442;-77
2023/09/28 03:38:24;;;;;;;1999.90;999.90;;;11.60;99.90;;;;;;5073978;28;20029;-77
2023/09/28 03:40:49;;;;;;;1999.90;999.90;;;11.70;99.90;;;;;;5076796;28;20055;-77
2023/09/28 03:43:15;;;;;;;1999.90;999.90;;;11.60;99.90;;;;;;5077420;28;20055;-77
2023/09/28 03:45:41;;;;;;;1999.90;999.90;;;11.70;99.90;;;;;;5075791;28;20525;-77
2023/09/28 03:48:07;;;;;;;1999.90;999.90;;;11.70;99.90;;;;;;5075719;28;20037;-77
2023/09/28 03:50:32;;;;;;;1999.90;999.90;;;11.70;99.90;;;;;;5077303;28;20033;-77
2023/09/28 03:52:58;;;;;;;1999.90;999.90;;;11.80;99.90;;;;;;5075460;28;20079;-77
2023/09/28 03:55:23;;;;;;;1999.90;999.90;;;11.80;99.90;;;;;;5077318;28;20120;-76
2023/09/28 03:57:52;;;;;;;1999.90;999.90;;;11.80;99.90;;;;;;5076891;28;20044;-77
2023/09/28 04:00:19;;;;;;;1999.90;999.90;;;11.90;99.90;;;;;;5075663;28;20029;-77
2023/09/28 04:02:50;;;;;;;1999.90;999.90;;;11.90;99.90;;;;;;5076886;28;20025;-77
2023/09/28 04:05:16;;;;;;;1999.90;999.90;;;11.90;99.90;;;;;;5077229;28;20033;-77
2023/09/28 04:07:41;;;;;;;1999.90;999.90;;;11.90;99.90;;;;;;5076798;28;20044;-77
2023/09/28 04:10:09;;;;;;;1999.90;999.90;;;11.90;99.90;;;;;;5077091;28;20041;-77
2023/09/28 04:12:35;;;;;;;1999.90;999.90;;;11.90;99.90;;;;;;5077129;28;20037;-77
2023/09/28 04:15:00;;;;;;;1999.90;999.90;;;11.90;99.90;;;;;;5076780;28;20090;-77
2023/09/28 04:17:26;;;;;;;1999.90;999.90;;;11.90;99.90;;;;;;5077139;28;20433;-76
2023/09/28 04:19:52;;;;;;;1999.90;999.90;;;12.00;99.90;;;;;;5076867;28;20044;-76
2023/09/28 04:22:18;;;;;;;1999.90;999.90;;;12.00;99.90;;;;;;5075008;28;20033;-76
2023/09/28 04:24:43;;;;;;;1999.90;999.90;;;12.00;99.90;;;;;;5076975;28;20395;-76
2023/09/28 04:27:09;;;;;;;1999.90;999.90;;;12.00;99.90;;;;;;5076505;28;20029;-76
2023/09/28 04:29:35;;;;;;;1999.90;999.90;;;12.00;99.90;;;;;;5075115;28;20041;-75
2023/09/28 04:32:01;;;;;;;1999.90;999.90;;;12.00;99.90;;;;;;5076028;28;20103;-78
2023/09/28 04:34:27;;;;;;;1999.90;999.90;;;12.10;99.90;;;;;;5076158;28;20554;-78
2023/09/28 04:36:52;;;;;;;1999.90;999.90;;;12.10;99.90;;;;;;5076370;28;20475;-78
2023/09/28 04:39:18;;;;;;;1999.90;999.90;;;12.10;99.90;;;;;;5076487;28;20048;-78
2023/09/28 04:41:44;;;;;;;1999.90;999.90;;;12.10;99.90;;;;;;5076775;28;20418;-78
2023/09/28 04:44:10;;;;;;;1999.90;999.90;;;12.00;99.90;;;;;;5076349;28;20061;-78
2023/09/28 04:46:36;;;;;;;1999.90;999.90;;;12.00;99.90;;;;;;5077657;28;20033;-78
2023/09/28 04:49:02;;;;;;;1999.90;999.90;;;12.00;99.90;;;;;;5076092;28;20518;-79
2023/09/28 04:51:28;;;;;;;1999.90;999.90;;;12.10;99.90;;;;;;5076000;28;20029;-79
2023/09/28 04:53:54;;;;;;;1999.90;999.90;;;12.00;99.90;;;;;;5074624;28;20518;-78
2023/09/28 04:56:20;;;;;;;1999.90;999.90;;;12.00;99.90;;;;;;5074433;28;20043;-79
2023/09/28 04:58:46;;;;;;;1999.90;999.90;;;12.00;99.90;;;;;;5076317;28;20518;-78
2023/09/28 05:01:11;;;;;;;1999.90;999.90;;;12.00;99.90;;;;;;5076174;28;20036;-78
2023/09/28 05:03:37;;;;;;;1999.90;999.90;;;12.00;99.90;;;;;;5075864;28;20395;-78
2023/09/28 05:06:04;;;;;;;1999.90;999.90;;;12.00;99.90;;;;;;5075872;28;20116;-78
2023/09/28 05:08:30;;;;;;;1999.90;999.90;;;11.90;99.90;;;;;;5076063;28;20087;-79
2023/09/28 05:10:56;;;;;;;1999.90;999.90;;;12.00;99.90;;;;;;5076320;28;20036;-79
2023/09/28 05:13:23;;;;;;;1999.90;999.90;;;12.00;99.90;;;;;;5076259;28;20033;-79
2023/09/28 05:15:49;;;;;;;1999.90;999.90;;;12.10;99.90;;;;;;5075729;28;20077;-79
2023/09/28 05:18:15;;;;;;;1999.90;999.90;;;12.10;99.90;;;;;;5075861;28;20488;-77
2023/09/28 05:20:40;;;;;;;1999.90;999.90;;;12.10;99.90;;;;;;5076148;28;20033;-78
2023/09/28 05:23:09;;;;;;;1999.90;999.90;;;12.20;99.90;;;;;;5075757;28;20041;-79
2023/09/28 05:25:35;;;;;;;1999.90;999.90;;;12.20;99.90;;;;;;5075916;28;20493;-79
2023/09/28 05:28:01;;;;;;;1999.90;999.90;;;12.20;99.90;;;;;;5093044;22;20040;-77
2023/09/28 05:30:26;;;;;;;1999.90;999.90;;;12.30;99.90;;;;;;5074029;28;20516;-76
2023/09/28 05:32:52;;;;;;;1999.90;999.90;;;12.30;99.90;;;;;;5075565;28;20086;-75
2023/09/28 05:35:18;;;;;;;1999.90;999.90;;;12.30;99.90;;;;;;5075428;28;20124;-80
2023/09/28 05:37:44;;;;;;;1999.90;999.90;;;12.30;99.90;;;;;;5075479;28;20067;-76
2023/09/28 05:40:10;;;;;;;1999.90;999.90;;;12.30;99.90;;;;;;5075460;28;20068;-78
2023/09/28 05:42:36;;;;;;;1999.90;999.90;;;12.30;99.90;;;;;;5075628;28;20033;-77
2023/09/28 05:45:02;;;;;;;1999.90;999.90;;;12.30;99.90;;;;;;5075454;28;20044;-76
2023/09/28 05:47:28;;;;;;;1999.90;999.90;;;12.30;99.90;;;;;;5073551;28;20033;-77
2023/09/28 05:49:54;;;;;;;1999.90;999.90;;;12.20;99.90;;;;;;5075082;28;20107;-77
2023/09/28 05:52:20;;;;;;;1999.90;999.90;;;12.30;99.90;;;;;;5075426;28;20029;-77
2023/09/28 05:54:46;;;;;;;1999.90;999.90;;;12.30;99.90;;;;;;5075417;28;20033;-76
2023/09/28 05:57:12;;;;;;;1999.90;999.90;;;12.30;99.90;;;;;;5073530;28;20087;-76
2023/09/28 05:59:38;;;;;;;1999.90;999.90;;;12.30;99.90;;;;;;5075144;28;20025;-77
2023/09/28 06:02:04;;;;;;;1999.90;999.90;;;12.30;99.90;;;;;;5074263;28;20611;-76
2023/09/28 06:04:29;;;;;;;1999.90;999.90;;;12.40;99.90;;;;;;5073508;28;20506;-76
2023/09/28 06:06:55;;;;;;;1999.90;999.90;;;12.40;99.90;;;;;;5074898;28;20036;-77
2023/09/28 06:09:21;;;;;;;1999.90;999.90;;;12.40;99.90;;;;;;5074660;28;20120;-76
2023/09/28 06:11:46;;;;;;;1999.90;999.90;;;12.40;99.90;;;;;;5073407;28;20033;-76
2023/09/28 06:14:15;;;;;;;1999.90;999.90;;;12.40;99.90;;;;;;5073502;28;20040;-77
2023/09/28 06:16:44;;;;;;;1999.90;999.90;;;12.40;99.90;;;;;;5074613;28;20060;-76
2023/09/28 06:19:09;;;;;;;1999.90;999.90;;;12.30;99.90;;;;;;5073111;28;20033;-76
2023/09/28 06:21:35;;;;;;;1999.90;999.90;;;12.30;99.90;;;;;;5074852;28;20783;-76
2023/09/28 06:24:04;;;;;;;1999.90;999.90;;;12.30;99.90;;;;;;5073363;28;20029;-76
2023/09/28 06:26:30;;;;;;;1999.90;999.90;;;12.40;99.90;;;;;;5074539;28;20031;-77
2023/09/28 06:28:56;;;;;;;1999.90;999.90;;;12.40;99.90;;;;;;5074312;28;20108;-76
2023/09/28 06:31:21;;;;;;;1999.90;999.90;;;12.50;99.90;;;;;;5073194;28;20091;-76
2023/09/28 06:33:47;;;;;;;1999.90;999.90;;;12.60;99.90;;;;;;5074459;28;20120;-77
2023/09/28 06:36:13;;;;;;;1999.90;999.90;;;12.70;99.90;;;;;;5074417;28;20104;-76
2023/09/28 06:38:38;;;;;;;1999.90;999.90;;;12.70;99.90;;;;;;5074510;28;20039;-76
2023/09/28 06:41:04;;;;;;;1999.90;999.90;;;12.90;99.90;;;;;;5074709;28;20072;-76
2023/09/28 06:43:29;;;;;;;1999.90;999.90;;;13.00;99.90;;;;;;5074630;28;20045;-77
2023/09/28 06:45:58;;;;;;;1999.90;999.90;;;13.00;99.90;;;;;;5074279;28;20064;-76
2023/09/28 06:48:26;;;;;;;1999.90;999.90;;;13.10;99.90;;;;;;5073952;28;20041;-77
2023/09/28 06:50:53;;;;;;;1999.90;999.90;;;13.20;99.90;;;;;;5074494;28;20510;-76
2023/09/28 06:53:19;;;;;;;1999.90;999.90;;;13.20;99.90;;;;;;5072889;28;20091;-76
2023/09/28 06:55:44;;;;;;;1999.90;999.90;;;13.20;99.90;;;;;;5074257;28;20029;-76
2023/09/28 06:58:13;;;;;;;1999.90;999.90;;;13.20;99.90;;;;;;5072894;28;20059;-76
2023/09/28 07:00:39;;;;;;;1999.90;999.90;;;13.20;99.90;;;;;;5072879;28;20053;-76
2023/09/28 07:03:05;;;;;;;1999.90;999.90;;;13.30;99.90;;;;;;5074118;28;20067;-76
2023/09/28 07:05:33;;;;;;;1999.90;999.90;;;13.40;99.90;;;;;;5072775;28;20055;-76
2023/09/28 07:07:59;;;;;;;1999.90;999.90;;;13.40;99.90;;;;;;5073784;28;20553;-76
2023/09/28 07:10:25;;;;;;;1999.90;999.90;;;13.50;99.90;;;;;;5074305;28;20112;-76
2023/09/28 07:12:50;;;;;;;1999.90;999.90;;;13.50;99.90;;;;;;5072695;28;20124;-76
2023/09/28 07:15:16;;;;;;;1999.90;999.90;;;13.40;99.90;;;;;;5077929;28;20033;-76
2023/09/28 07:17:42;;;;;;;1999.90;999.90;;;13.40;99.90;;;;;;5077513;28;20044;-76
2023/09/28 07:20:09;;;;;;;1999.90;999.90;;;13.30;99.90;;;;;;5075964;28;20059;-77
2023/09/28 07:22:35;;;;;;;1999.90;999.90;;;13.30;99.90;;;;;;5077706;28;20546;-77
2023/09/28 07:25:01;;;;;;;1999.90;999.90;;;13.30;99.90;;;;;;5077758;28;20035;-77
2023/09/28 07:27:31;;;;;;;1999.90;999.90;;;13.30;99.90;;;;;;5077408;28;20492;-77
2023/09/28 07:29:57;;;;;;;1999.90;999.90;;;13.40;99.90;;;;;;5075483;28;20045;-76
2023/09/28 07:32:23;;;;;;;1999.90;999.90;;;13.40;99.90;;;;;;5077494;28;20060;-77
2023/09/28 07:34:48;;;;;;;1999.90;999.90;;;13.50;99.90;;;;;;5077556;28;20068;-76
2023/09/28 07:37:15;;;;;;;1999.90;999.90;;;13.60;99.90;;;;;;5075728;28;20029;-76
2023/09/28 07:39:40;;;;;;;1999.90;999.90;;;13.70;99.90;;;;;;5077264;28;20036;-76
2023/09/28 07:42:08;;;;;;;1999.90;999.90;;;14.00;99.90;;;;;;5077362;28;20044;-77
2023/09/28 07:44:34;;;;;;;1999.90;999.90;;;14.10;99.90;;;;;;5077228;28;20037;-77
2023/09/28 07:47:00;;;;;;;1999.90;999.90;;;14.20;99.90;;;;;;5077046;28;20569;-77
2023/09/28 07:49:25;;;;;;;1999.90;999.90;;;14.40;99.90;;;;;;5077142;28;20045;-77
2023/09/28 07:51:55;;;;;;;1999.90;999.90;;;14.50;99.90;;;;;;5077271;28;20028;-76
2023/09/28 07:54:20;;;;;;;1999.90;999.90;;;14.60;99.90;;;;;;5075638;28;20502;-77
2023/09/28 07:56:46;;;;;;;1999.90;999.90;;;14.80;99.90;;;;;;5076772;28;20067;-76
2023/09/28 07:59:11;;;;;;;1999.90;999.90;;;14.90;99.90;;;;;;5076698;28;20175;-76
2023/09/28 08:01:38;;;;;;;1999.90;999.90;;;15.10;99.90;;;;;;5077001;28;20398;-77
2023/09/28 08:04:04;;;;;;;1999.90;999.90;;;15.30;99.90;;;;;;5077115;28;20134;-77
2023/09/28 08:06:30;;;;;;;1999.90;999.90;;;15.40;99.90;;;;;;5076804;28;20048;-77
2023/09/28 08:08:56;;;;;;;1999.90;999.90;;;15.60;99.90;;;;;;5076747;28;20045;-76
2023/09/28 08:11:22;;;;;;;1999.90;999.90;;;15.70;99.90;;;;;;5076731;28;20112;-77
2023/09/28 08:13:47;;;;;;;1999.90;999.90;;;15.90;99.90;;;;;;5076933;28;20040;-76
2023/09/28 08:16:13;;;;;;;1999.90;999.90;;;16.10;99.90;;;;;;5076649;28;20029;-77
2023/09/28 08:18:39;;;;;;;1999.90;999.90;;;16.30;99.90;;;;;;5076535;28;20503;-77
2023/09/28 08:21:04;;;;;;;1999.90;999.90;;;16.40;99.90;;;;;;5074923;28;20025;-76
2023/09/28 08:23:32;;;;;;;1999.90;999.90;;;16.50;99.90;;;;;;5076820;28;20057;-77
2023/09/28 08:25:57;;;;;;;1999.90;999.90;;;16.70;99.90;;;;;;5075657;28;20040;-77
2023/09/28 08:28:24;;;;;;;1999.90;999.90;;;16.90;99.90;;;;;;5076002;28;20045;-76
2023/09/28 08:30:49;;;;;;;1999.90;999.90;;;17.00;99.90;;;;;;5076720;28;20029;-77
2023/09/28 08:33:16;;;;;;;1999.90;999.90;;;17.20;99.90;;;;;;5076753;28;20036;-76
2023/09/28 08:35:50;;;;;;;1999.90;999.90;;;17.40;99.90;;;;;;5076385;28;20480;-77
2023/09/28 08:38:16;;;;;;;1999.90;999.90;;;17.60;99.90;;;;;;5076494;28;20057;-77
2023/09/28 08:40:42;;;;;;;1999.90;999.90;;;17.70;99.90;;;;;;5076595;28;20491;-78
2023/09/28 08:43:11;;;;;;;1999.90;999.90;;;17.50;99.90;;;;;;5076385;28;20446;-77
2023/09/28 08:45:39;;;;;;;1999.90;999.90;;;17.40;99.90;;;;;;5076289;28;20025;-76
2023/09/28 08:48:06;;;;;;;1999.90;999.90;;;17.30;99.90;;;;;;5075851;28;20040;-77
2023/09/28 08:50:37;;;;;;;1999.90;999.90;;;17.20;99.90;;;;;;5076328;28;20107;-77
2023/09/28 08:53:06;;;;;;;1999.90;999.90;;;17.40;99.90;;;;;;5076353;28;20033;-77
2023/09/28 08:55:38;;;;;;;1999.90;999.90;;;17.60;99.90;;;;;;5076026;28;20119;-77
2023/09/28 08:58:05;;;;;;;1999.90;999.90;;;17.90;99.90;;;;;;5074241;28;20032;-76
2023/09/28 09:00:31;;;;;;;1999.90;999.90;;;18.10;99.90;;;;;;5076092;28;20442;-78
2023/09/28 09:02:58;;;;;;;1999.90;999.90;;;18.30;99.90;;;;;;5076255;28;20083;-77
2023/09/28 09:05:29;;;;;;;1999.90;999.90;;;18.50;99.90;;;;;;5074636;28;20036;-76
2023/09/28 09:07:55;;;;;;;1999.90;999.90;;;18.70;99.90;;;;;;5075628;28;20038;-77
2023/09/28 09:10:27;;;;;;;1999.90;999.90;;;18.90;99.90;;;;;;5075807;28;20040;-76
2023/09/28 09:12:53;;;;;;;1999.90;999.90;;;19.00;99.90;;;;;;5074400;28;20081;-77
2023/09/28 09:15:19;;;;;;;1999.90;999.90;;;19.20;99.90;;;;;;5075914;28;20040;-77
2023/09/28 09:17:45;;;;;;;1999.90;999.90;;;19.30;99.90;;;;;;5075694;28;20191;-77
2023/09/28 09:20:11;;;;;;;1999.90;999.90;;;19.30;99.90;;;;;;5075772;28;20620;-77
2023/09/28 09:22:37;;;;;;;1999.90;999.90;;;19.60;99.90;;;;;;5074304;28;20029;-77
2023/09/28 09:25:03;;;;;;;1999.90;999.90;;;19.80;99.90;;;;;;5075852;28;20071;-78
2023/09/28 09:27:31;;;;;;;1999.90;999.90;;;19.90;99.90;;;;;;5075490;28;20063;-77
2023/09/28 09:30:06;;;;;;;1999.90;999.90;;;20.10;99.90;;;;;;5075200;28;20037;-77
2023/09/28 09:32:32;;;;;;;1999.90;999.90;;;20.20;99.90;;;;;;5075722;28;20048;-77
2023/09/28 09:34:57;;;;;;;1999.90;999.90;;;20.40;99.90;;;;;;5075577;28;20036;-77
2023/09/28 09:37:23;;;;;;;1999.90;999.90;;;20.60;99.90;;;;;;5074102;28;20033;-77
2023/09/28 09:39:49;;;;;;;1999.90;999.90;;;20.70;99.90;;;;;;5075364;28;20033;-77
2023/09/28 09:42:26;;;;;;;1999.90;999.90;;;20.80;99.90;;;;;;5073753;28;20037;-77
2023/09/28 09:44:52;;;;;;;1999.90;999.90;;;21.00;99.90;;;;;;5075490;28;20076;-77
2023/09/28 09:47:19;;;;;;;1999.90;999.90;;;21.10;99.90;;;;;;5073865;28;20108;-78
2023/09/28 09:49:47;;;;;;;1999.90;999.90;;;21.20;99.90;;;;;;5074963;28;20495;-77
2023/09/28 09:52:15;;;;;;;1999.90;999.90;;;21.40;99.90;;;;;;5073762;28;20056;-77
2023/09/28 09:54:42;;;;;;;1999.90;999.90;;;21.60;99.90;;;;;;5075034;28;20033;-76
2023/09/28 09:57:10;;;;;;;1999.90;999.90;;;21.80;99.90;;;;;;5074898;28;20032;-77
2023/09/28 09:59:40;;;;;;;1999.90;999.90;;;21.70;99.90;;;;;;5075041;28;20071;-77
2023/09/28 10:02:16;;;;;;;1999.90;999.90;;;21.90;99.90;;;;;;5073775;28;20496;-77
2023/09/28 10:04:43;;;;;;;1999.90;999.90;;;22.10;99.90;;;;;;5075121;28;20033;-78
2023/09/28 10:07:12;;;;;;;1999.90;999.90;;;22.30;99.90;;;;;;5074942;28;20518;-77
2023/09/28 10:09:41;;;;;;;1999.90;999.90;;;22.50;99.90;;;;;;5074551;28;20040;-77
2023/09/28 10:12:08;;;;;;;1999.90;999.90;;;22.60;99.90;;;;;;5075111;28;20057;-77
2023/09/28 10:14:34;;;;;;;1999.90;999.90;;;22.60;99.90;;;;;;5074804;28;20029;-77
2023/09/28 10:17:00;;;;;;;1999.90;999.90;;;22.70;99.90;;;;;;5073186;28;20084;-77
2023/09/28 10:19:27;;;;;;;1999.90;999.90;;;22.70;99.90;;;;;;5073244;28;20466;-78
2023/09/28 10:21:55;;;;;;;1999.90;999.90;;;23.10;99.90;;;;;;5074813;28;20032;-77
2023/09/28 10:24:30;;;;;;;1999.90;999.90;;;23.20;99.80;;;;;;5074734;28;20116;-77
2023/09/28 10:26:55;;;;;;;1999.90;999.90;;;23.30;98.90;;;;;;5074739;28;20041;-77
2023/09/28 10:29:32;;;;;;;1999.90;999.90;;;23.40;97.90;;;;;;5074203;28;20037;-77
2023/09/28 10:31:58;;;;;;;1999.90;999.90;;;23.60;98.40;;;;;;5074922;28;20140;-77
2023/09/28 10:34:26;;;;;;;1999.90;999.90;;;23.70;97.20;;;;;;5074650;28;20495;-77
2023/09/28 10:37:08;;;;;;;1999.90;999.90;;;23.80;96.40;;;;;;5074251;28;20501;-77
2023/09/28 10:39:33;;;;;;;1999.90;999.90;;;24.10;95.60;;;;;;5074414;28;20087;-77
2023/09/28 10:42:13;;;;;;;1999.90;999.90;;;24.20;95.00;;;;;;5074294;28;20363;-77
2023/09/28 10:44:56;;;;;;;1999.90;999.90;;;24.20;95.50;;;;;;5074639;28;20095;-77
2023/09/28 10:47:22;;;;;;;1999.90;999.90;;;24.40;94.80;;;;;;5072698;28;20481;-77
2023/09/28 10:49:57;;;;;;;1999.90;999.90;;;24.50;95.10;;;;;;5072150;28;20037;-77
2023/09/28 10:52:23;;;;;;;1999.90;999.90;;;24.50;94.80;;;;;;5074647;28;20368;-77
2023/09/28 10:54:49;;;;;;;1999.90;999.90;;;24.50;93.80;;;;;;5072954;28;20099;-77
2023/09/28 10:57:15;;;;;;;1999.90;999.90;;;24.60;94.20;;;;;;5072600;28;20033;-77
2023/09/28 10:59:41;;;;;;;1999.90;999.90;;;24.70;93.40;;;;;;5074049;28;20683;-77
2023/09/28 11:02:08;;;;;;;1999.90;999.90;;;24.70;93.40;;;;;;5074402;28;20079;-77
2023/09/28 11:04:37;;;;;;;1999.90;999.90;;;24.70;93.00;;;;;;5074007;28;20631;-77
2023/09/28 11:07:03;;;;;;;1999.90;999.90;;;24.50;93.50;;;;;;5073888;28;20033;-77
2023/09/28 11:09:29;;;;;;;1999.90;999.90;;;24.70;93.40;;;;;;5073916;28;20033;-77
2023/09/28 11:11:55;;;;;;;1999.90;999.90;;;24.80;93.30;;;;;;5074288;28;20033;-77
2023/09/28 11:14:25;;;;;;;1999.90;999.90;;;24.90;93.10;;;;;;5074024;28;20067;-77
2023/09/28 11:16:52;;;;;;;1999.90;999.90;;;24.90;92.70;;;;;;5072260;28;20029;-78
2023/09/28 11:19:19;;;;;;;1999.90;999.90;;;24.90;93.30;;;;;;5074042;28;20037;-77
2023/09/28 11:21:45;;;;;;;1999.90;999.90;;;25.10;92.90;;;;;;5074168;28;20029;-77
2023/09/28 11:24:11;;;;;;;1999.90;999.90;;;25.20;93.00;;;;;;5074108;28;20044;-77
2023/09/28 11:26:39;;;;;;;1999.90;999.90;;;25.20;91.80;;;;;;5072253;28;20033;-77
2023/09/28 11:29:04;;;;;;;1999.90;999.90;;;25.40;92.00;;;;;;5071983;28;20037;-77
2023/09/28 11:31:35;;;;;;;1999.90;999.90;;;25.50;92.60;;;;;;5074168;28;20083;-77
2023/09/28 11:34:02;;;;;;;1999.90;999.90;;;25.60;92.00;;;;;;5074286;28;20033;-77
2023/09/28 11:36:28;;;;;;;1999.90;999.90;;;25.70;92.40;;;;;;5073627;28;20037;-78
2023/09/28 11:38:55;;;;;;;1999.90;999.90;;;25.80;91.10;;;;;;5073656;28;20033;-77
2023/09/28 11:41:22;;;;;;;1999.90;999.90;;;25.70;91.40;;;;;;5073997;28;20120;-77
2023/09/28 11:43:51;;;;;;;1999.90;999.90;;;25.50;92.40;;;;;;5072443;28;20064;-78
2023/09/28 11:46:24;;;;;;;1999.90;999.90;;;25.40;91.80;;;;;;5073564;28;20730;-77
2023/09/28 11:49:06;;;;;;;1999.90;999.90;;;25.30;92.30;;;;;;5071879;28;20490;-77
2023/09/28 11:51:33;;;;;;;1999.90;999.90;;;25.50;91.90;;;;;;5073797;28;20064;-77
2023/09/28 11:53:59;;;;;;;1999.90;999.90;;;25.50;92.00;;;;;;5073784;28;20100;-77
2023/09/28 11:56:25;;;;;;;1999.90;999.90;;;25.60;91.30;;;;;;5071957;28;20037;-77
2023/09/28 11:58:51;;;;;;;1999.90;999.90;;;25.70;91.10;;;;;;5073632;28;20048;-77